Lexington — WDC9823 — position and weather

sailwx.info

Track history (hours):
 
Tides and Currents Weather Stations Pressure Air Temp Water Temp Dewpoint Dewpoint Depression Visibility Wind Speed Wind Dir Waves Ship Positions

Lexington

Owner: McNamara, Gerald M, Lexington, KY. More information available from US FCC via Universal Licensing System and Coast Guard Vessel Documentation Center.

Last reported at 2017-Oct-09 23:51 UTC. Time now 2017-Oct-18 18:50 UTC.
Position N 48°45' W 123°22'.
Warning: this ship's position is 8 days out of date.

Length 22 m.

Type: Pleasure craft. MMSI: 367107130.

Date/timePositionNaut miles runAvg speedWind from/ knotsBaromVisibWave heightAir tempDewpointWater temp
2017-Oct-09 23:51N 48°45' W 123°22'310.2
2017-Oct-09 23:30N 48°49' W 123°24'4 7.9
2017-Oct-09 23:00N 48°53' W 123°24'4 8.0
2017-Oct-09 22:28N 48°55' W 123°29'4 8.9
2017-Oct-09 22:00N 48°58' W 123°34'4 7.5
2017-Oct-09 21:30N 49°01' W 123°35'4 7.8
2017-Oct-09 21:00N 49°05' W 123°32'3 5.5
2017-Oct-09 20:29N 49°08' W 123°30'4 8.8
2017-Oct-09 19:59N 49°11' W 123°27'4 8.5
2017-Oct-09 19:30N 49°14' W 123°23'5 9.1
2017-Oct-09 19:00N 49°18' W 123°19'4 6.7
2017-Oct-09 18:29N 49°21' W 123°16'0 0.0
2017-Oct-08 23:58N 49°21' W 123°16'0 0.0
2017-Oct-08 23:28N 49°21' W 123°16'0 0.0
2017-Oct-08 22:58N 49°21' W 123°16'0 0.0
2017-Oct-08 22:28N 49°21' W 123°16'0 0.0
2017-Oct-08 21:58N 49°21' W 123°16'0 0.0
2017-Oct-08 21:28N 49°21' W 123°16'0 0.0
2017-Oct-08 20:58N 49°21' W 123°16'0 0.0
2017-Oct-08 20:28N 49°21' W 123°16'0 0.0
2017-Oct-08 19:55N 49°21' W 123°16'0 0.0
2017-Oct-08 19:25N 49°21' W 123°16'0 0.0
2017-Oct-08 18:58N 49°21' W 123°16'0 0.0
2017-Oct-08 18:28N 49°21' W 123°16'0 0.0
2017-Oct-08 17:55N 49°21' W 123°16'0 0.0
2017-Oct-08 17:28N 49°21' W 123°16'0 0.0
2017-Oct-08 16:58N 49°21' W 123°16'0 0.0
2017-Oct-08 16:28N 49°21' W 123°16'0 0.0
2017-Oct-08 15:58N 49°21' W 123°16'0 0.0
2017-Oct-08 15:28N 49°21' W 123°16'0 0.0
2017-Oct-08 14:58N 49°21' W 123°16'0 0.0
2017-Oct-08 14:28N 49°21' W 123°16'0 0.0
2017-Oct-08 13:58N 49°21' W 123°16'0 0.0
2017-Oct-08 13:28N 49°21' W 123°16'0 0.0
2017-Oct-08 12:58N 49°21' W 123°16'0 0.0
2017-Oct-08 12:25N 49°21' W 123°16'0 0.0
2017-Oct-08 11:58N 49°21' W 123°16'0 0.0
2017-Oct-08 11:28N 49°21' W 123°16'0 0.0
2017-Oct-08 10:58N 49°21' W 123°16'0 0.0
2017-Oct-08 10:28N 49°21' W 123°16'0 0.0
2017-Oct-08 09:58N 49°21' W 123°16'0 0.0
2017-Oct-08 09:25N 49°21' W 123°16'0 0.0
2017-Oct-08 08:58N 49°21' W 123°16'0 0.0
2017-Oct-08 08:25N 49°21' W 123°16'0 0.0
2017-Oct-08 07:58N 49°21' W 123°16'0 0.0
2017-Oct-08 07:25N 49°21' W 123°16'0 0.0
2017-Oct-08 06:58N 49°21' W 123°16'0 0.0
2017-Oct-08 06:28N 49°21' W 123°16'0 0.0
2017-Oct-08 05:58N 49°21' W 123°16'0 0.0
2017-Oct-08 05:28N 49°21' W 123°16'0 0.0
2017-Oct-08 04:55N 49°21' W 123°16'0 0.0
2017-Oct-08 04:25N 49°21' W 123°16'0 0.0
2017-Oct-08 03:58N 49°21' W 123°16'0 0.0
2017-Oct-08 03:28N 49°21' W 123°16'0 0.0
2017-Oct-08 02:58N 49°21' W 123°16'0 0.0
2017-Oct-08 02:28N 49°21' W 123°16'0 0.0
2017-Oct-08 01:58N 49°21' W 123°16'0 0.0
2017-Oct-08 01:28N 49°21' W 123°16'0 0.0
2017-Oct-08 00:58N 49°21' W 123°16'0 0.0
2017-Oct-08 00:28N 49°21' W 123°16'0 0.0
2017-Oct-07 23:58N 49°21' W 123°16'0 0.0
2017-Oct-07 23:28N 49°21' W 123°16'0 0.0
2017-Oct-07 22:58N 49°21' W 123°16'0 0.0
2017-Oct-07 22:28N 49°21' W 123°16'0 0.0
2017-Oct-07 21:58N 49°21' W 123°16'0 0.0
2017-Oct-07 21:28N 49°21' W 123°16'0 0.0
2017-Oct-07 20:58N 49°21' W 123°16'0 0.0
2017-Oct-07 20:28N 49°21' W 123°16'0 0.0
2017-Oct-07 19:58N 49°21' W 123°16'0 0.0
2017-Oct-07 19:28N 49°21' W 123°16'0 0.0
2017-Oct-07 18:58N 49°21' W 123°16'0 0.0
2017-Oct-07 18:28N 49°21' W 123°16'0 0.0
2017-Oct-07 17:58N 49°21' W 123°16'0 0.0
2017-Oct-07 17:28N 49°21' W 123°16'0 0.0
2017-Oct-07 16:58N 49°21' W 123°16'0 0.0
2017-Oct-07 16:25N 49°21' W 123°16'0 0.0
2017-Oct-07 15:58N 49°21' W 123°16'0 0.0
2017-Oct-07 15:28N 49°21' W 123°16'0 0.0
2017-Oct-07 14:58N 49°21' W 123°16'0 0.0
2017-Oct-07 14:28N 49°21' W 123°16'0 0.0
2017-Oct-07 13:58N 49°21' W 123°16'0 0.0
2017-Oct-07 13:28N 49°21' W 123°16'0 0.0
2017-Oct-07 12:58N 49°21' W 123°16'0 0.0
2017-Oct-07 12:28N 49°21' W 123°16'0 0.0
2017-Oct-07 11:58N 49°21' W 123°16'0 0.0
2017-Oct-07 11:28N 49°21' W 123°16'0 0.0
2017-Oct-07 10:58N 49°21' W 123°16'0 0.0
2017-Oct-07 10:28N 49°21' W 123°16'0 0.0
2017-Oct-07 09:58N 49°21' W 123°16'0 0.0
2017-Oct-07 09:25N 49°21' W 123°16'0 0.0
2017-Oct-07 08:58N 49°21' W 123°16'0 0.0
2017-Oct-07 08:28N 49°21' W 123°16'0 0.0
2017-Oct-07 07:58N 49°21' W 123°16'0 0.0
2017-Oct-07 07:28N 49°21' W 123°16'0 0.0
2017-Oct-07 06:55N 49°21' W 123°16'0 0.0
2017-Oct-07 06:28N 49°21' W 123°16'0 0.0
2017-Oct-07 05:58N 49°21' W 123°16'0 0.0
2017-Oct-07 05:25N 49°21' W 123°16'0 0.0
2017-Oct-07 04:55N 49°21' W 123°16'0 0.0
2017-Oct-07 04:28N 49°21' W 123°16'0 0.0
2017-Oct-07 03:58N 49°21' W 123°16'0 0.0
2017-Oct-07 03:28N 49°21' W 123°16'0 0.0
2017-Oct-07 02:58N 49°21' W 123°16'0 0.0
2017-Oct-07 02:28N 49°21' W 123°16'0 0.0
2017-Oct-07 01:58N 49°21' W 123°16'0 0.0
2017-Oct-07 01:28N 49°21' W 123°16'0 0.0
2017-Oct-07 00:55N 49°21' W 123°16'0 0.0
2017-Oct-07 00:28N 49°21' W 123°16'0 0.0
2017-Oct-06 23:58N 49°21' W 123°16'0 0.0
2017-Oct-06 23:28N 49°21' W 123°16'0 0.0
2017-Oct-06 22:58N 49°21' W 123°16'0 0.0
2017-Oct-06 22:25N 49°21' W 123°16'0 0.0
2017-Oct-06 21:55N 49°21' W 123°16'0 0.0
2017-Oct-06 21:25N 49°21' W 123°16'0 0.0
2017-Oct-06 20:58N 49°21' W 123°16'0 0.0
2017-Oct-06 20:25N 49°21' W 123°16'0 0.0
2017-Oct-06 19:58N 49°21' W 123°16'0 0.0
2017-Oct-06 19:28N 49°21' W 123°16'0 0.0
2017-Oct-06 18:58N 49°21' W 123°16'0 0.0
2017-Oct-06 18:28N 49°21' W 123°16'0 0.0
2017-Oct-06 17:55N 49°21' W 123°16'0 0.0
2017-Oct-06 17:28N 49°21' W 123°16'0 0.0
2017-Oct-06 16:55N 49°21' W 123°16'0 0.0
2017-Oct-06 16:28N 49°21' W 123°16'0 0.0
2017-Oct-06 15:58N 49°21' W 123°16'0 0.0
2017-Oct-06 15:28N 49°21' W 123°16'0 0.0
2017-Oct-06 14:55N 49°21' W 123°16'0 0.0
2017-Oct-06 14:25N 49°21' W 123°16'0 0.0
2017-Oct-06 13:58N 49°21' W 123°16'0 0.0
2017-Oct-06 13:28N 49°21' W 123°16'0 0.0
2017-Oct-06 12:58N 49°21' W 123°16'0 0.0
2017-Oct-06 12:28N 49°21' W 123°16'0 0.0
2017-Oct-06 11:58N 49°21' W 123°16'0 0.0
2017-Oct-06 11:28N 49°21' W 123°16'0 0.0
2017-Oct-06 10:58N 49°21' W 123°16'0 0.0
2017-Oct-06 10:28N 49°21' W 123°16'0 0.0
2017-Oct-06 09:58N 49°21' W 123°16'0 0.0
2017-Oct-06 09:28N 49°21' W 123°16'0 0.0
2017-Oct-06 08:58N 49°21' W 123°16'0 0.0
2017-Oct-06 08:25N 49°21' W 123°16'0 0.0
2017-Oct-06 07:58N 49°21' W 123°16'0 0.0
2017-Oct-06 07:28N 49°21' W 123°16'0 0.0
2017-Oct-06 06:58N 49°21' W 123°16'0 0.0
2017-Oct-06 06:28N 49°21' W 123°16'0 0.0
2017-Oct-06 05:58N 49°21' W 123°16'0 0.0
2017-Oct-06 05:28N 49°21' W 123°16'0 0.0
2017-Oct-06 04:58N 49°21' W 123°16'0 0.0
2017-Oct-06 04:28N 49°21' W 123°16'0 0.0
2017-Oct-06 03:55N 49°21' W 123°16'0 0.0
2017-Oct-06 03:28N 49°21' W 123°16'0 0.0
2017-Oct-06 02:58N 49°21' W 123°16'0 0.0
2017-Oct-06 02:28N 49°21' W 123°16'0 0.0
2017-Oct-06 01:58N 49°21' W 123°16'0 0.0
2017-Oct-06 01:22N 49°21' W 123°16'0 0.0
2017-Oct-06 00:58N 49°21' W 123°16'0 0.0
2017-Oct-06 00:28N 49°21' W 123°16'0 0.0
2017-Oct-05 23:55N 49°21' W 123°16'0 0.0
2017-Oct-05 23:28N 49°21' W 123°16'0 0.0
2017-Oct-05 22:58N 49°21' W 123°16'0 0.0
2017-Oct-05 22:28N 49°21' W 123°16'0 0.0
2017-Oct-05 21:58N 49°21' W 123°16'0 0.0
2017-Oct-05 21:28N 49°21' W 123°16'0 0.0
2017-Oct-05 20:58N 49°21' W 123°16'0 0.0
2017-Oct-05 20:25N 49°21' W 123°16'0 0.0
2017-Oct-05 19:55N 49°21' W 123°16'0 0.0
2017-Oct-05 19:28N 49°21' W 123°16'0 0.0
2017-Oct-05 18:58N 49°21' W 123°16'0 0.0
2017-Oct-05 18:28N 49°21' W 123°16'0 0.0
2017-Oct-05 17:58N 49°21' W 123°16'0 0.0
2017-Oct-05 17:28N 49°21' W 123°16'0 0.0
2017-Oct-05 16:58N 49°21' W 123°16'0 0.0
2017-Oct-05 15:28N 49°21' W 123°16'0 0.0
2017-Oct-05 14:58N 49°21' W 123°16'0 0.0
2017-Oct-05 14:13N 49°21' W 123°16'0 0.0
2017-Oct-05 13:58N 49°21' W 123°16'0 0.0
2017-Oct-05 13:28N 49°21' W 123°16'0 0.0
2017-Oct-05 12:58N 49°21' W 123°16'0 0.0
2017-Oct-05 12:28N 49°21' W 123°16'0 0.0
2017-Oct-05 11:58N 49°21' W 123°16'0 0.0
2017-Oct-05 11:28N 49°21' W 123°16'0 0.0
2017-Oct-05 10:58N 49°21' W 123°16'0 0.0
2017-Oct-05 10:28N 49°21' W 123°16'0 0.0
2017-Oct-05 09:58N 49°21' W 123°16'0 0.0
2017-Oct-05 09:28N 49°21' W 123°16'0 0.0
2017-Oct-05 08:58N 49°21' W 123°16'0 0.0
2017-Oct-05 08:28N 49°21' W 123°16'0 0.0
2017-Oct-05 07:58N 49°21' W 123°16'0 0.0
2017-Oct-05 07:28N 49°21' W 123°16'0 0.0
2017-Oct-05 06:58N 49°21' W 123°16'0 0.0
2017-Oct-05 06:28N 49°21' W 123°16'0 0.0
2017-Oct-05 05:58N 49°21' W 123°16'0 0.0
2017-Oct-05 05:28N 49°21' W 123°16'0 0.0
2017-Oct-05 04:58N 49°21' W 123°16'0 0.0
2017-Oct-05 04:28N 49°21' W 123°16'0 0.0
2017-Oct-05 03:58N 49°21' W 123°16'0 0.0
2017-Oct-05 03:28N 49°21' W 123°16'0 0.0
2017-Oct-05 02:58N 49°21' W 123°16'0 0.0
2017-Oct-05 02:28N 49°21' W 123°16'0 0.0
2017-Oct-05 01:55N 49°21' W 123°16'0 0.0
2017-Oct-05 01:28N 49°21' W 123°16'0 0.0
2017-Oct-05 00:58N 49°21' W 123°16'0 0.0
2017-Oct-05 00:28N 49°21' W 123°16'0 0.0
2017-Oct-04 23:58N 49°21' W 123°16'0 0.0
2017-Oct-04 23:28N 49°21' W 123°16'0 0.0
2017-Oct-04 22:58N 49°21' W 123°16'0 0.0
2017-Oct-04 22:28N 49°21' W 123°16'0 0.0
2017-Oct-04 21:58N 49°21' W 123°16'0 0.0
2017-Oct-04 21:28N 49°21' W 123°16'0 0.0
2017-Oct-04 20:58N 49°21' W 123°16'0 0.0
2017-Oct-04 20:28N 49°21' W 123°16'0 0.0
2017-Oct-04 19:58N 49°21' W 123°16'0 0.0
2017-Oct-04 19:25N 49°21' W 123°16'0 0.0
2017-Oct-04 18:58N 49°21' W 123°16'0 0.0
2017-Oct-04 18:22N 49°21' W 123°16'0 0.0
2017-Oct-04 17:58N 49°21' W 123°16'0 0.0
2017-Oct-04 17:28N 49°21' W 123°16'0 0.0
2017-Oct-04 16:58N 49°21' W 123°16'0 0.0
2017-Oct-04 16:25N 49°21' W 123°16'0 0.0
2017-Oct-04 15:58N 49°21' W 123°16'0 0.0
2017-Oct-04 15:28N 49°21' W 123°16'0 0.0
2017-Oct-04 14:58N 49°21' W 123°16'0 0.0
2017-Oct-04 14:28N 49°21' W 123°16'0 0.0
2017-Oct-04 13:58N 49°21' W 123°16'0 0.0
2017-Oct-04 13:28N 49°21' W 123°16'0 0.0
2017-Oct-04 12:58N 49°21' W 123°16'0 0.0
2017-Oct-04 12:28N 49°21' W 123°16'0 0.0
2017-Oct-04 11:58N 49°21' W 123°16'0 0.0
2017-Oct-04 11:28N 49°21' W 123°16'0 0.0
2017-Oct-04 10:58N 49°21' W 123°16'0 0.0
2017-Oct-04 10:25N 49°21' W 123°16'0 0.0
2017-Oct-04 09:58N 49°21' W 123°16'0 0.0
2017-Oct-04 09:28N 49°21' W 123°16'0 0.0
2017-Oct-04 08:58N 49°21' W 123°16'0 0.0
2017-Oct-04 08:28N 49°21' W 123°16'0 0.0
2017-Oct-04 07:55N 49°21' W 123°16'0 0.0
2017-Oct-04 07:28N 49°21' W 123°16'0 0.0
2017-Oct-04 06:58N 49°21' W 123°16'0 0.0
2017-Oct-04 06:28N 49°21' W 123°16'0 0.0
2017-Oct-04 05:58N 49°21' W 123°16'0 0.0
2017-Oct-04 05:22N 49°21' W 123°16'0 0.0
2017-Oct-04 04:58N 49°21' W 123°16'0 0.0
2017-Oct-04 04:28N 49°21' W 123°16'0 0.0
2017-Oct-04 03:58N 49°21' W 123°16'0 0.0
2017-Oct-04 03:28N 49°21' W 123°16'0 0.0
2017-Oct-04 02:58N 49°21' W 123°16'0 0.0
2017-Oct-04 02:28N 49°21' W 123°16'0 0.0
2017-Oct-04 01:58N 49°21' W 123°16'0 0.0
2017-Oct-04 01:28N 49°21' W 123°16'0 0.0
2017-Oct-04 00:55N 49°21' W 123°16'0 0.0
2017-Oct-04 00:28N 49°21' W 123°16'0 0.0
2017-Oct-03 23:55N 49°21' W 123°16'0 0.0
2017-Oct-03 23:28N 49°21' W 123°16'0 0.0
2017-Oct-03 22:58N 49°21' W 123°16'0 0.0
2017-Oct-03 22:28N 49°21' W 123°16'0 0.0
2017-Oct-03 21:58N 49°21' W 123°16'0 0.0
2017-Oct-03 21:28N 49°21' W 123°16'0 0.0
2017-Oct-03 20:58N 49°21' W 123°16'0 0.0
2017-Oct-03 20:28N 49°21' W 123°16'0 0.0
2017-Oct-03 19:58N 49°21' W 123°16'0 0.0
2017-Oct-03 19:28N 49°21' W 123°16'0 0.0
2017-Oct-03 18:58N 49°21' W 123°16'0 0.0
2017-Oct-03 18:28N 49°21' W 123°16'0 0.0
2017-Oct-03 17:58N 49°21' W 123°16'0 0.0
2017-Oct-03 17:28N 49°21' W 123°16'0 0.0
2017-Oct-03 16:55N 49°21' W 123°16'0 0.0
2017-Oct-03 16:28N 49°21' W 123°16'0 0.0
2017-Oct-03 15:58N 49°21' W 123°16'0 0.0
2017-Oct-03 15:28N 49°21' W 123°16'0 0.0
2017-Oct-03 14:58N 49°21' W 123°16'0 0.0
2017-Oct-03 13:58N 49°21' W 123°16'0 0.0
2017-Oct-03 13:28N 49°21' W 123°16'0 0.0
2017-Oct-03 12:55N 49°21' W 123°16'0 0.0
2017-Oct-03 12:28N 49°21' W 123°16'0 0.0
2017-Oct-03 11:58N 49°21' W 123°16'0 0.0
2017-Oct-03 11:28N 49°21' W 123°16'0 0.0
2017-Oct-03 10:58N 49°21' W 123°16'0 0.0
2017-Oct-03 10:28N 49°21' W 123°16'0 0.0
2017-Oct-03 09:58N 49°21' W 123°16'0 0.0
2017-Oct-03 09:28N 49°21' W 123°16'0 0.0
2017-Oct-03 08:58N 49°21' W 123°16'0 0.0
2017-Oct-03 08:28N 49°21' W 123°16'0 0.0
2017-Oct-03 07:58N 49°21' W 123°16'0 0.0
2017-Oct-03 07:28N 49°21' W 123°16'0 0.0
2017-Oct-03 06:58N 49°21' W 123°16'0 0.0
2017-Oct-03 06:25N 49°21' W 123°16'0 0.0
2017-Oct-03 05:58N 49°21' W 123°16'0 0.0
2017-Oct-03 05:28N 49°21' W 123°16'0 0.0
2017-Oct-03 04:58N 49°21' W 123°16'0 0.0
2017-Oct-03 04:28N 49°21' W 123°16'0 0.0
2017-Oct-03 03:58N 49°21' W 123°16'0 0.0
2017-Oct-03 03:28N 49°21' W 123°16'0 0.0
2017-Oct-03 02:58N 49°21' W 123°16'0 0.0
2017-Oct-03 02:28N 49°21' W 123°16'0 0.0
2017-Oct-03 01:58N 49°21' W 123°16'0 0.0
2017-Oct-03 01:28N 49°21' W 123°16'0 0.0
2017-Oct-03 00:58N 49°21' W 123°16'0 0.0
2017-Oct-03 00:25N 49°21' W 123°16'0 0.0
2017-Oct-02 23:58N 49°21' W 123°16'0 0.0
2017-Oct-02 23:28N 49°21' W 123°16'0 0.0
2017-Oct-02 22:58N 49°21' W 123°16'0 0.0
2017-Oct-02 22:28N 49°21' W 123°16'0 0.0
2017-Oct-02 21:58N 49°21' W 123°16'0 0.0
2017-Oct-02 21:25N 49°21' W 123°16'0 0.0
2017-Oct-02 20:58N 49°21' W 123°16'0 0.0
2017-Oct-02 20:25N 49°21' W 123°16'0 0.0
2017-Oct-02 19:58N 49°21' W 123°16'0 0.0
2017-Oct-02 19:28N 49°21' W 123°16'0 0.0
2017-Oct-02 18:58N 49°21' W 123°16'0 0.0
2017-Oct-02 18:28N 49°21' W 123°16'0 0.0
2017-Oct-02 17:58N 49°21' W 123°16'0 0.0
2017-Oct-02 17:28N 49°21' W 123°16'0 0.0
2017-Oct-02 16:58N 49°21' W 123°16'0 0.0
2017-Oct-02 16:25N 49°21' W 123°16'0 0.0
2017-Oct-02 15:58N 49°21' W 123°16'0 0.0
2017-Oct-02 15:28N 49°21' W 123°16'0 0.0
2017-Oct-02 14:58N 49°21' W 123°16'0 0.0
2017-Oct-02 14:28N 49°21' W 123°16'0 0.0
2017-Oct-02 13:58N 49°21' W 123°16'0 0.0
2017-Oct-02 13:28N 49°21' W 123°16'0 0.0
2017-Oct-02 12:58N 49°21' W 123°16'0 0.0
2017-Oct-02 12:28N 49°21' W 123°16'0 0.0
2017-Oct-02 11:58N 49°21' W 123°16'0 0.0
2017-Oct-02 11:28N 49°21' W 123°16'0 0.0
2017-Oct-02 10:55N 49°21' W 123°16'0 0.0
2017-Oct-02 10:28N 49°21' W 123°16'0 0.0
2017-Oct-02 09:58N 49°21' W 123°16'0 0.0
2017-Oct-02 09:28N 49°21' W 123°16'0 0.0
2017-Oct-02 08:58N 49°21' W 123°16'0 0.0
2017-Oct-02 08:25N 49°21' W 123°16'0 0.0
2017-Oct-02 07:58N 49°21' W 123°16'0 0.0
2017-Oct-02 07:25N 49°21' W 123°16'0 0.0
2017-Oct-02 06:58N 49°21' W 123°16'0 0.0
2017-Oct-02 06:28N 49°21' W 123°16'0 0.0
2017-Oct-02 05:58N 49°21' W 123°16'0 0.0
2017-Oct-02 05:28N 49°21' W 123°16'0 0.0
2017-Oct-02 04:55N 49°21' W 123°16'0 0.0
2017-Oct-02 04:25N 49°21' W 123°16'0 0.0
2017-Oct-02 03:55N 49°21' W 123°16'0 0.0
2017-Oct-02 03:04N 49°21' W 123°16'0 0.0
2017-Oct-02 02:55N 49°21' W 123°16'0 0.0
2017-Oct-02 01:25N 49°21' W 123°16'0 0.0
2017-Oct-02 00:49N 49°21' W 123°16'0 0.0
2017-Oct-02 00:22N 49°21' W 123°16'0 0.0
2017-Oct-01 23:49N 49°21' W 123°16'0 0.0
2017-Oct-01 23:28N 49°21' W 123°16'0 0.0
2017-Oct-01 22:49N 49°21' W 123°16'0 0.0
2017-Oct-01 22:19N 49°21' W 123°16'0 0.0
2017-Oct-01 21:52N 49°21' W 123°16'0 0.0
2017-Oct-01 21:22N 49°21' W 123°16'0 0.0
2017-Oct-01 19:49N 49°21' W 123°16'0 0.0
2017-Oct-01 19:25N 49°21' W 123°16'0 0.0
2017-Oct-01 18:58N 49°21' W 123°16'0 0.0
2017-Oct-01 16:52N 49°21' W 123°16'0 0.0
2017-Oct-01 16:01N 49°21' W 123°16'0 0.0
2017-Oct-01 15:43N 49°21' W 123°16'0 0.0
2017-Oct-01 14:07N 49°21' W 123°16'0 0.0
2017-Oct-01 13:07N 49°21' W 123°16'0 0.0
2017-Oct-01 09:55N 49°21' W 123°16'0 0.0
2017-Oct-01 09:13N 49°21' W 123°16'0 0.0
2017-Oct-01 08:58N 49°21' W 123°16'0 0.0
2017-Oct-01 08:28N 49°21' W 123°16'0 0.0
2017-Oct-01 07:40N 49°21' W 123°16'0 0.0
2017-Oct-01 07:25N 49°21' W 123°16'0 0.0
2017-Oct-01 06:46N 49°21' W 123°16'0 0.0
2017-Oct-01 06:25N 49°21' W 123°16'0 0.0
2017-Oct-01 05:58N 49°21' W 123°16'0 0.0
2017-Oct-01 05:28N 49°21' W 123°16'0 0.0
2017-Oct-01 04:58N 49°21' W 123°16'0 0.0
2017-Oct-01 04:28N 49°21' W 123°16'0 0.0
2017-Oct-01 03:58N 49°21' W 123°16'0 0.0
2017-Oct-01 03:28N 49°21' W 123°16'0 0.0
2017-Oct-01 02:52N 49°21' W 123°16'0 0.0
2017-Sep-30 01:58N 49°21' W 123°16'0 0.0
2017-Sep-30 01:25N 49°21' W 123°16'0 0.0
2017-Sep-30 00:58N 49°21' W 123°16'0 0.0
2017-Sep-30 00:28N 49°21' W 123°16'0 0.0
2017-Sep-29 23:58N 49°21' W 123°16'  
Track history (hours):
 
Tides and Currents Weather Stations Pressure Air Temp Water Temp Dewpoint Dewpoint Depression Visibility Wind Speed Wind Dir Waves Ship Positions

Lexington

Owner: McNamara, Gerald M, Lexington, KY. More information available from US FCC via Universal Licensing System and Coast Guard Vessel Documentation Center.

Last reported at 2017-Oct-09 23:51 UTC. Time now 2017-Oct-18 18:50 UTC.
Position N 48°45' W 123°22'.
Warning: this ship's position is 8 days out of date.

Length 22 m.

Type: Pleasure craft. MMSI: 367107130.

Date/timePositionNaut miles runAvg speedWind from/ knotsBaromVisibWave heightAir tempDewpointWater temp
2017-Oct-09 23:51N 48°45' W 123°22'310.2
2017-Oct-09 23:30N 48°49' W 123°24'4 7.9
2017-Oct-09 23:00N 48°53' W 123°24'4 8.0
2017-Oct-09 22:28N 48°55' W 123°29'4 8.9
2017-Oct-09 22:00N 48°58' W 123°34'4 7.5
2017-Oct-09 21:30N 49°01' W 123°35'4 7.8
2017-Oct-09 21:00N 49°05' W 123°32'3 5.5
2017-Oct-09 20:29N 49°08' W 123°30'4 8.8
2017-Oct-09 19:59N 49°11' W 123°27'4 8.5
2017-Oct-09 19:30N 49°14' W 123°23'5 9.1
2017-Oct-09 19:00N 49°18' W 123°19'4 6.7
2017-Oct-09 18:29N 49°21' W 123°16'0 0.0
2017-Oct-08 23:58N 49°21' W 123°16'0 0.0
2017-Oct-08 23:28N 49°21' W 123°16'0 0.0
2017-Oct-08 22:58N 49°21' W 123°16'0 0.0
2017-Oct-08 22:28N 49°21' W 123°16'0 0.0
2017-Oct-08 21:58N 49°21' W 123°16'0 0.0
2017-Oct-08 21:28N 49°21' W 123°16'0 0.0
2017-Oct-08 20:58N 49°21' W 123°16'0 0.0
2017-Oct-08 20:28N 49°21' W 123°16'0 0.0
2017-Oct-08 19:55N 49°21' W 123°16'0 0.0
2017-Oct-08 19:25N 49°21' W 123°16'0 0.0
2017-Oct-08 18:58N 49°21' W 123°16'0 0.0
2017-Oct-08 18:28N 49°21' W 123°16'0 0.0
2017-Oct-08 17:55N 49°21' W 123°16'0 0.0
2017-Oct-08 17:28N 49°21' W 123°16'0 0.0
2017-Oct-08 16:58N 49°21' W 123°16'0 0.0
2017-Oct-08 16:28N 49°21' W 123°16'0 0.0
2017-Oct-08 15:58N 49°21' W 123°16'0 0.0
2017-Oct-08 15:28N 49°21' W 123°16'0 0.0
2017-Oct-08 14:58N 49°21' W 123°16'0 0.0
2017-Oct-08 14:28N 49°21' W 123°16'0 0.0
2017-Oct-08 13:58N 49°21' W 123°16'0 0.0
2017-Oct-08 13:28N 49°21' W 123°16'0 0.0
2017-Oct-08 12:58N 49°21' W 123°16'0 0.0
2017-Oct-08 12:25N 49°21' W 123°16'0 0.0
2017-Oct-08 11:58N 49°21' W 123°16'0 0.0
2017-Oct-08 11:28N 49°21' W 123°16'0 0.0
2017-Oct-08 10:58N 49°21' W 123°16'0 0.0
2017-Oct-08 10:28N 49°21' W 123°16'0 0.0
2017-Oct-08 09:58N 49°21' W 123°16'0 0.0
2017-Oct-08 09:25N 49°21' W 123°16'0 0.0
2017-Oct-08 08:58N 49°21' W 123°16'0 0.0
2017-Oct-08 08:25N 49°21' W 123°16'0 0.0
2017-Oct-08 07:58N 49°21' W 123°16'0 0.0
2017-Oct-08 07:25N 49°21' W 123°16'0 0.0
2017-Oct-08 06:58N 49°21' W 123°16'0 0.0
2017-Oct-08 06:28N 49°21' W 123°16'0 0.0
2017-Oct-08 05:58N 49°21' W 123°16'0 0.0
2017-Oct-08 05:28N 49°21' W 123°16'0 0.0
2017-Oct-08 04:55N 49°21' W 123°16'0 0.0
2017-Oct-08 04:25N 49°21' W 123°16'0 0.0
2017-Oct-08 03:58N 49°21' W 123°16'0 0.0
2017-Oct-08 03:28N 49°21' W 123°16'0 0.0
2017-Oct-08 02:58N 49°21' W 123°16'0 0.0
2017-Oct-08 02:28N 49°21' W 123°16'0 0.0
2017-Oct-08 01:58N 49°21' W 123°16'0 0.0
2017-Oct-08 01:28N 49°21' W 123°16'0 0.0
2017-Oct-08 00:58N 49°21' W 123°16'0 0.0
2017-Oct-08 00:28N 49°21' W 123°16'0 0.0
2017-Oct-07 23:58N 49°21' W 123°16'0 0.0
2017-Oct-07 23:28N 49°21' W 123°16'0 0.0
2017-Oct-07 22:58N 49°21' W 123°16'0 0.0
2017-Oct-07 22:28N 49°21' W 123°16'0 0.0
2017-Oct-07 21:58N 49°21' W 123°16'0 0.0
2017-Oct-07 21:28N 49°21' W 123°16'0 0.0
2017-Oct-07 20:58N 49°21' W 123°16'0 0.0
2017-Oct-07 20:28N 49°21' W 123°16'0 0.0
2017-Oct-07 19:58N 49°21' W 123°16'0 0.0
2017-Oct-07 19:28N 49°21' W 123°16'0 0.0
2017-Oct-07 18:58N 49°21' W 123°16'0 0.0
2017-Oct-07 18:28N 49°21' W 123°16'0 0.0
2017-Oct-07 17:58N 49°21' W 123°16'0 0.0
2017-Oct-07 17:28N 49°21' W 123°16'0 0.0
2017-Oct-07 16:58N 49°21' W 123°16'0 0.0
2017-Oct-07 16:25N 49°21' W 123°16'0 0.0
2017-Oct-07 15:58N 49°21' W 123°16'0 0.0
2017-Oct-07 15:28N 49°21' W 123°16'0 0.0
2017-Oct-07 14:58N 49°21' W 123°16'0 0.0
2017-Oct-07 14:28N 49°21' W 123°16'0 0.0
2017-Oct-07 13:58N 49°21' W 123°16'0 0.0
2017-Oct-07 13:28N 49°21' W 123°16'0 0.0
2017-Oct-07 12:58N 49°21' W 123°16'0 0.0
2017-Oct-07 12:28N 49°21' W 123°16'0 0.0
2017-Oct-07 11:58N 49°21' W 123°16'0 0.0
2017-Oct-07 11:28N 49°21' W 123°16'0 0.0
2017-Oct-07 10:58N 49°21' W 123°16'0 0.0
2017-Oct-07 10:28N 49°21' W 123°16'0 0.0
2017-Oct-07 09:58N 49°21' W 123°16'0 0.0
2017-Oct-07 09:25N 49°21' W 123°16'0 0.0
2017-Oct-07 08:58N 49°21' W 123°16'0 0.0
2017-Oct-07 08:28N 49°21' W 123°16'0 0.0
2017-Oct-07 07:58N 49°21' W 123°16'0 0.0
2017-Oct-07 07:28N 49°21' W 123°16'0 0.0
2017-Oct-07 06:55N 49°21' W 123°16'0 0.0
2017-Oct-07 06:28N 49°21' W 123°16'0 0.0
2017-Oct-07 05:58N 49°21' W 123°16'0 0.0
2017-Oct-07 05:25N 49°21' W 123°16'0 0.0
2017-Oct-07 04:55N 49°21' W 123°16'0 0.0
2017-Oct-07 04:28N 49°21' W 123°16'0 0.0
2017-Oct-07 03:58N 49°21' W 123°16'0 0.0
2017-Oct-07 03:28N 49°21' W 123°16'0 0.0
2017-Oct-07 02:58N 49°21' W 123°16'0 0.0
2017-Oct-07 02:28N 49°21' W 123°16'0 0.0
2017-Oct-07 01:58N 49°21' W 123°16'0 0.0
2017-Oct-07 01:28N 49°21' W 123°16'0 0.0
2017-Oct-07 00:55N 49°21' W 123°16'0 0.0
2017-Oct-07 00:28N 49°21' W 123°16'0 0.0
2017-Oct-06 23:58N 49°21' W 123°16'0 0.0
2017-Oct-06 23:28N 49°21' W 123°16'0 0.0
2017-Oct-06 22:58N 49°21' W 123°16'0 0.0
2017-Oct-06 22:25N 49°21' W 123°16'0 0.0
2017-Oct-06 21:55N 49°21' W 123°16'0 0.0
2017-Oct-06 21:25N 49°21' W 123°16'0 0.0
2017-Oct-06 20:58N 49°21' W 123°16'0 0.0
2017-Oct-06 20:25N 49°21' W 123°16'0 0.0
2017-Oct-06 19:58N 49°21' W 123°16'0 0.0
2017-Oct-06 19:28N 49°21' W 123°16'0 0.0
2017-Oct-06 18:58N 49°21' W 123°16'0 0.0
2017-Oct-06 18:28N 49°21' W 123°16'0 0.0
2017-Oct-06 17:55N 49°21' W 123°16'0 0.0
2017-Oct-06 17:28N 49°21' W 123°16'0 0.0
2017-Oct-06 16:55N 49°21' W 123°16'0 0.0
2017-Oct-06 16:28N 49°21' W 123°16'0 0.0
2017-Oct-06 15:58N 49°21' W 123°16'0 0.0
2017-Oct-06 15:28N 49°21' W 123°16'0 0.0
2017-Oct-06 14:55N 49°21' W 123°16'0 0.0
2017-Oct-06 14:25N 49°21' W 123°16'0 0.0
2017-Oct-06 13:58N 49°21' W 123°16'0 0.0
2017-Oct-06 13:28N 49°21' W 123°16'0 0.0
2017-Oct-06 12:58N 49°21' W 123°16'0 0.0
2017-Oct-06 12:28N 49°21' W 123°16'0 0.0
2017-Oct-06 11:58N 49°21' W 123°16'0 0.0
2017-Oct-06 11:28N 49°21' W 123°16'0 0.0
2017-Oct-06 10:58N 49°21' W 123°16'0 0.0
2017-Oct-06 10:28N 49°21' W 123°16'0 0.0
2017-Oct-06 09:58N 49°21' W 123°16'0 0.0
2017-Oct-06 09:28N 49°21' W 123°16'0 0.0
2017-Oct-06 08:58N 49°21' W 123°16'0 0.0
2017-Oct-06 08:25N 49°21' W 123°16'0 0.0
2017-Oct-06 07:58N 49°21' W 123°16'0 0.0
2017-Oct-06 07:28N 49°21' W 123°16'0 0.0
2017-Oct-06 06:58N 49°21' W 123°16'0 0.0
2017-Oct-06 06:28N 49°21' W 123°16'0 0.0
2017-Oct-06 05:58N 49°21' W 123°16'0 0.0
2017-Oct-06 05:28N 49°21' W 123°16'0 0.0
2017-Oct-06 04:58N 49°21' W 123°16'0 0.0
2017-Oct-06 04:28N 49°21' W 123°16'0 0.0
2017-Oct-06 03:55N 49°21' W 123°16'0 0.0
2017-Oct-06 03:28N 49°21' W 123°16'0 0.0
2017-Oct-06 02:58N 49°21' W 123°16'0 0.0
2017-Oct-06 02:28N 49°21' W 123°16'0 0.0
2017-Oct-06 01:58N 49°21' W 123°16'0 0.0
2017-Oct-06 01:22N 49°21' W 123°16'0 0.0
2017-Oct-06 00:58N 49°21' W 123°16'0 0.0
2017-Oct-06 00:28N 49°21' W 123°16'0 0.0
2017-Oct-05 23:55N 49°21' W 123°16'0 0.0
2017-Oct-05 23:28N 49°21' W 123°16'0 0.0
2017-Oct-05 22:58N 49°21' W 123°16'0 0.0
2017-Oct-05 22:28N 49°21' W 123°16'0 0.0
2017-Oct-05 21:58N 49°21' W 123°16'0 0.0
2017-Oct-05 21:28N 49°21' W 123°16'0 0.0
2017-Oct-05 20:58N 49°21' W 123°16'0 0.0
2017-Oct-05 20:25N 49°21' W 123°16'0 0.0
2017-Oct-05 19:55N 49°21' W 123°16'0 0.0
2017-Oct-05 19:28N 49°21' W 123°16'0 0.0
2017-Oct-05 18:58N 49°21' W 123°16'0 0.0
2017-Oct-05 18:28N 49°21' W 123°16'0 0.0
2017-Oct-05 17:58N 49°21' W 123°16'0 0.0
2017-Oct-05 17:28N 49°21' W 123°16'0 0.0
2017-Oct-05 16:58N 49°21' W 123°16'0 0.0
2017-Oct-05 15:28N 49°21' W 123°16'0 0.0
2017-Oct-05 14:58N 49°21' W 123°16'0 0.0
2017-Oct-05 14:13N 49°21' W 123°16'0 0.0
2017-Oct-05 13:58N 49°21' W 123°16'0 0.0
2017-Oct-05 13:28N 49°21' W 123°16'0 0.0
2017-Oct-05 12:58N 49°21' W 123°16'0 0.0
2017-Oct-05 12:28N 49°21' W 123°16'0 0.0
2017-Oct-05 11:58N 49°21' W 123°16'0 0.0
2017-Oct-05 11:28N 49°21' W 123°16'0 0.0
2017-Oct-05 10:58N 49°21' W 123°16'0 0.0
2017-Oct-05 10:28N 49°21' W 123°16'0 0.0
2017-Oct-05 09:58N 49°21' W 123°16'0 0.0
2017-Oct-05 09:28N 49°21' W 123°16'0 0.0
2017-Oct-05 08:58N 49°21' W 123°16'0 0.0
2017-Oct-05 08:28N 49°21' W 123°16'0 0.0
2017-Oct-05 07:58N 49°21' W 123°16'0 0.0
2017-Oct-05 07:28N 49°21' W 123°16'0 0.0
2017-Oct-05 06:58N 49°21' W 123°16'0 0.0
2017-Oct-05 06:28N 49°21' W 123°16'0 0.0
2017-Oct-05 05:58N 49°21' W 123°16'0 0.0
2017-Oct-05 05:28N 49°21' W 123°16'0 0.0
2017-Oct-05 04:58N 49°21' W 123°16'0 0.0
2017-Oct-05 04:28N 49°21' W 123°16'0 0.0
2017-Oct-05 03:58N 49°21' W 123°16'0 0.0
2017-Oct-05 03:28N 49°21' W 123°16'0 0.0
2017-Oct-05 02:58N 49°21' W 123°16'0 0.0
2017-Oct-05 02:28N 49°21' W 123°16'0 0.0
2017-Oct-05 01:55N 49°21' W 123°16'0 0.0
2017-Oct-05 01:28N 49°21' W 123°16'0 0.0
2017-Oct-05 00:58N 49°21' W 123°16'0 0.0
2017-Oct-05 00:28N 49°21' W 123°16'0 0.0
2017-Oct-04 23:58N 49°21' W 123°16'0 0.0
2017-Oct-04 23:28N 49°21' W 123°16'0 0.0
2017-Oct-04 22:58N 49°21' W 123°16'0 0.0
2017-Oct-04 22:28N 49°21' W 123°16'0 0.0
2017-Oct-04 21:58N 49°21' W 123°16'0 0.0
2017-Oct-04 21:28N 49°21' W 123°16'0 0.0
2017-Oct-04 20:58N 49°21' W 123°16'0 0.0
2017-Oct-04 20:28N 49°21' W 123°16'0 0.0
2017-Oct-04 19:58N 49°21' W 123°16'0 0.0
2017-Oct-04 19:25N 49°21' W 123°16'0 0.0
2017-Oct-04 18:58N 49°21' W 123°16'0 0.0
2017-Oct-04 18:22N 49°21' W 123°16'0 0.0
2017-Oct-04 17:58N 49°21' W 123°16'0 0.0
2017-Oct-04 17:28N 49°21' W 123°16'0 0.0
2017-Oct-04 16:58N 49°21' W 123°16'0 0.0
2017-Oct-04 16:25N 49°21' W 123°16'0 0.0
2017-Oct-04 15:58N 49°21' W 123°16'0 0.0
2017-Oct-04 15:28N 49°21' W 123°16'0 0.0
2017-Oct-04 14:58N 49°21' W 123°16'0 0.0
2017-Oct-04 14:28N 49°21' W 123°16'0 0.0
2017-Oct-04 13:58N 49°21' W 123°16'0 0.0
2017-Oct-04 13:28N 49°21' W 123°16'0 0.0
2017-Oct-04 12:58N 49°21' W 123°16'0 0.0
2017-Oct-04 12:28N 49°21' W 123°16'0 0.0
2017-Oct-04 11:58N 49°21' W 123°16'0 0.0
2017-Oct-04 11:28N 49°21' W 123°16'0 0.0
2017-Oct-04 10:58N 49°21' W 123°16'0 0.0
2017-Oct-04 10:25N 49°21' W 123°16'0 0.0
2017-Oct-04 09:58N 49°21' W 123°16'0 0.0
2017-Oct-04 09:28N 49°21' W 123°16'0 0.0
2017-Oct-04 08:58N 49°21' W 123°16'0 0.0
2017-Oct-04 08:28N 49°21' W 123°16'0 0.0
2017-Oct-04 07:55N 49°21' W 123°16'0 0.0
2017-Oct-04 07:28N 49°21' W 123°16'0 0.0
2017-Oct-04 06:58N 49°21' W 123°16'0 0.0
2017-Oct-04 06:28N 49°21' W 123°16'0 0.0
2017-Oct-04 05:58N 49°21' W 123°16'0 0.0
2017-Oct-04 05:22N 49°21' W 123°16'0 0.0
2017-Oct-04 04:58N 49°21' W 123°16'0 0.0
2017-Oct-04 04:28N 49°21' W 123°16'0 0.0
2017-Oct-04 03:58N 49°21' W 123°16'0 0.0
2017-Oct-04 03:28N 49°21' W 123°16'0 0.0
2017-Oct-04 02:58N 49°21' W 123°16'0 0.0
2017-Oct-04 02:28N 49°21' W 123°16'0 0.0
2017-Oct-04 01:58N 49°21' W 123°16'0 0.0
2017-Oct-04 01:28N 49°21' W 123°16'0 0.0
2017-Oct-04 00:55N 49°21' W 123°16'0 0.0
2017-Oct-04 00:28N 49°21' W 123°16'0 0.0
2017-Oct-03 23:55N 49°21' W 123°16'0 0.0
2017-Oct-03 23:28N 49°21' W 123°16'0 0.0
2017-Oct-03 22:58N 49°21' W 123°16'0 0.0
2017-Oct-03 22:28N 49°21' W 123°16'0 0.0
2017-Oct-03 21:58N 49°21' W 123°16'0 0.0
2017-Oct-03 21:28N 49°21' W 123°16'0 0.0
2017-Oct-03 20:58N 49°21' W 123°16'0 0.0
2017-Oct-03 20:28N 49°21' W 123°16'0 0.0
2017-Oct-03 19:58N 49°21' W 123°16'0 0.0
2017-Oct-03 19:28N 49°21' W 123°16'0 0.0
2017-Oct-03 18:58N 49°21' W 123°16'0 0.0
2017-Oct-03 18:28N 49°21' W 123°16'0 0.0
2017-Oct-03 17:58N 49°21' W 123°16'0 0.0
2017-Oct-03 17:28N 49°21' W 123°16'0 0.0
2017-Oct-03 16:55N 49°21' W 123°16'0 0.0
2017-Oct-03 16:28N 49°21' W 123°16'0 0.0
2017-Oct-03 15:58N 49°21' W 123°16'0 0.0
2017-Oct-03 15:28N 49°21' W 123°16'0 0.0
2017-Oct-03 14:58N 49°21' W 123°16'0 0.0
2017-Oct-03 13:58N 49°21' W 123°16'0 0.0
2017-Oct-03 13:28N 49°21' W 123°16'0 0.0
2017-Oct-03 12:55N 49°21' W 123°16'0 0.0
2017-Oct-03 12:28N 49°21' W 123°16'0 0.0
2017-Oct-03 11:58N 49°21' W 123°16'0 0.0
2017-Oct-03 11:28N 49°21' W 123°16'0 0.0
2017-Oct-03 10:58N 49°21' W 123°16'0 0.0
2017-Oct-03 10:28N 49°21' W 123°16'0 0.0
2017-Oct-03 09:58N 49°21' W 123°16'0 0.0
2017-Oct-03 09:28N 49°21' W 123°16'0 0.0
2017-Oct-03 08:58N 49°21' W 123°16'0 0.0
2017-Oct-03 08:28N 49°21' W 123°16'0 0.0
2017-Oct-03 07:58N 49°21' W 123°16'0 0.0
2017-Oct-03 07:28N 49°21' W 123°16'0 0.0
2017-Oct-03 06:58N 49°21' W 123°16'0 0.0
2017-Oct-03 06:25N 49°21' W 123°16'0 0.0
2017-Oct-03 05:58N 49°21' W 123°16'0 0.0
2017-Oct-03 05:28N 49°21' W 123°16'0 0.0
2017-Oct-03 04:58N 49°21' W 123°16'0 0.0
2017-Oct-03 04:28N 49°21' W 123°16'0 0.0
2017-Oct-03 03:58N 49°21' W 123°16'0 0.0
2017-Oct-03 03:28N 49°21' W 123°16'0 0.0
2017-Oct-03 02:58N 49°21' W 123°16'0 0.0
2017-Oct-03 02:28N 49°21' W 123°16'0 0.0
2017-Oct-03 01:58N 49°21' W 123°16'0 0.0
2017-Oct-03 01:28N 49°21' W 123°16'0 0.0
2017-Oct-03 00:58N 49°21' W 123°16'0 0.0
2017-Oct-03 00:25N 49°21' W 123°16'0 0.0
2017-Oct-02 23:58N 49°21' W 123°16'0 0.0
2017-Oct-02 23:28N 49°21' W 123°16'0 0.0
2017-Oct-02 22:58N 49°21' W 123°16'0 0.0
2017-Oct-02 22:28N 49°21' W 123°16'0 0.0
2017-Oct-02 21:58N 49°21' W 123°16'0 0.0
2017-Oct-02 21:25N 49°21' W 123°16'0 0.0
2017-Oct-02 20:58N 49°21' W 123°16'0 0.0
2017-Oct-02 20:25N 49°21' W 123°16'0 0.0
2017-Oct-02 19:58N 49°21' W 123°16'0 0.0
2017-Oct-02 19:28N 49°21' W 123°16'0 0.0
2017-Oct-02 18:58N 49°21' W 123°16'0 0.0
2017-Oct-02 18:28N 49°21' W 123°16'0 0.0
2017-Oct-02 17:58N 49°21' W 123°16'0 0.0
2017-Oct-02 17:28N 49°21' W 123°16'0 0.0
2017-Oct-02 16:58N 49°21' W 123°16'0 0.0
2017-Oct-02 16:25N 49°21' W 123°16'0 0.0
2017-Oct-02 15:58N 49°21' W 123°16'0 0.0
2017-Oct-02 15:28N 49°21' W 123°16'0 0.0
2017-Oct-02 14:58N 49°21' W 123°16'0 0.0
2017-Oct-02 14:28N 49°21' W 123°16'0 0.0
2017-Oct-02 13:58N 49°21' W 123°16'0 0.0
2017-Oct-02 13:28N 49°21' W 123°16'0 0.0
2017-Oct-02 12:58N 49°21' W 123°16'0 0.0
2017-Oct-02 12:28N 49°21' W 123°16'0 0.0
2017-Oct-02 11:58N 49°21' W 123°16'0 0.0
2017-Oct-02 11:28N 49°21' W 123°16'0 0.0
2017-Oct-02 10:55N 49°21' W 123°16'0 0.0
2017-Oct-02 10:28N 49°21' W 123°16'0 0.0
2017-Oct-02 09:58N 49°21' W 123°16'0 0.0
2017-Oct-02 09:28N 49°21' W 123°16'0 0.0
2017-Oct-02 08:58N 49°21' W 123°16'0 0.0
2017-Oct-02 08:25N 49°21' W 123°16'0 0.0
2017-Oct-02 07:58N 49°21' W 123°16'0 0.0
2017-Oct-02 07:25N 49°21' W 123°16'0 0.0
2017-Oct-02 06:58N 49°21' W 123°16'0 0.0
2017-Oct-02 06:28N 49°21' W 123°16'0 0.0
2017-Oct-02 05:58N 49°21' W 123°16'0 0.0
2017-Oct-02 05:28N 49°21' W 123°16'0 0.0
2017-Oct-02 04:55N 49°21' W 123°16'0 0.0
2017-Oct-02 04:25N 49°21' W 123°16'0 0.0
2017-Oct-02 03:55N 49°21' W 123°16'0 0.0
2017-Oct-02 03:04N 49°21' W 123°16'0 0.0
2017-Oct-02 02:55N 49°21' W 123°16'0 0.0
2017-Oct-02 01:25N 49°21' W 123°16'0 0.0
2017-Oct-02 00:49N 49°21' W 123°16'0 0.0
2017-Oct-02 00:22N 49°21' W 123°16'0 0.0
2017-Oct-01 23:49N 49°21' W 123°16'0 0.0
2017-Oct-01 23:28N 49°21' W 123°16'0 0.0
2017-Oct-01 22:49N 49°21' W 123°16'0 0.0
2017-Oct-01 22:19N 49°21' W 123°16'0 0.0
2017-Oct-01 21:52N 49°21' W 123°16'0 0.0
2017-Oct-01 21:22N 49°21' W 123°16'0 0.0
2017-Oct-01 19:49N 49°21' W 123°16'0 0.0
2017-Oct-01 19:25N 49°21' W 123°16'0 0.0
2017-Oct-01 18:58N 49°21' W 123°16'0 0.0
2017-Oct-01 16:52N 49°21' W 123°16'0 0.0
2017-Oct-01 16:01N 49°21' W 123°16'0 0.0
2017-Oct-01 15:43N 49°21' W 123°16'0 0.0
2017-Oct-01 14:07N 49°21' W 123°16'0 0.0
2017-Oct-01 13:07N 49°21' W 123°16'0 0.0
2017-Oct-01 09:55N 49°21' W 123°16'0 0.0
2017-Oct-01 09:13N 49°21' W 123°16'0 0.0
2017-Oct-01 08:58N 49°21' W 123°16'0 0.0
2017-Oct-01 08:28N 49°21' W 123°16'0 0.0
2017-Oct-01 07:40N 49°21' W 123°16'0 0.0
2017-Oct-01 07:25N 49°21' W 123°16'0 0.0
2017-Oct-01 06:46N 49°21' W 123°16'0 0.0
2017-Oct-01 06:25N 49°21' W 123°16'0 0.0
2017-Oct-01 05:58N 49°21' W 123°16'0 0.0
2017-Oct-01 05:28N 49°21' W 123°16'0 0.0
2017-Oct-01 04:58N 49°21' W 123°16'0 0.0
2017-Oct-01 04:28N 49°21' W 123°16'0 0.0
2017-Oct-01 03:58N 49°21' W 123°16'0 0.0
2017-Oct-01 03:28N 49°21' W 123°16'0 0.0
2017-Oct-01 02:52N 49°21' W 123°16'0 0.0
2017-Sep-30 01:58N 49°21' W 123°16'0 0.0
2017-Sep-30 01:25N 49°21' W 123°16'0 0.0
2017-Sep-30 00:58N 49°21' W 123°16'0 0.0
2017-Sep-30 00:28N 49°21' W 123°16'0 0.0
2017-Sep-29 23:58N 49°21' W 123°16'  

Dump ship's entire track history